sensor_id;sensor_type;location;lat;lon;timestamp;temperature;humidity
49441;DHT22;35317;51.978;6.296;2022-11-12T00:03:33;5.60;99.90
49441;DHT22;35317;51.978;6.296;2022-11-12T00:08:34;5.70;99.90
49441;DHT22;35317;51.978;6.296;2022-11-12T00:13:35;5.70;99.90
49441;DHT22;35317;51.978;6.296;2022-11-12T00:18:37;5.70;99.90
49441;DHT22;35317;51.978;6.296;2022-11-12T00:23:37;5.70;99.90
49441;DHT22;35317;51.978;6.296;2022-11-12T00:28:38;5.70;99.90
49441;DHT22;35317;51.978;6.296;2022-11-12T00:33:42;5.70;99.90
49441;DHT22;35317;51.978;6.296;2022-11-12T00:38:44;5.60;99.90
49441;DHT22;35317;51.978;6.296;2022-11-12T00:43:45;5.60;99.90
49441;DHT22;35317;51.978;6.296;2022-11-12T00:48:46;5.60;99.90
49441;DHT22;35317;51.978;6.296;2022-11-12T00:53:47;5.50;99.90
49441;DHT22;35317;51.978;6.296;2022-11-12T00:58:49;5.50;99.90
49441;DHT22;35317;51.978;6.296;2022-11-12T01:03:49;5.50;99.90
49441;DHT22;35317;51.978;6.296;2022-11-12T01:08:51;5.40;99.90
49441;DHT22;35317;51.978;6.296;2022-11-12T01:14:01;5.40;99.90
49441;DHT22;35317;51.978;6.296;2022-11-12T01:19:08;5.30;99.90
49441;DHT22;35317;51.978;6.296;2022-11-12T01:24:10;5.30;99.90
49441;DHT22;35317;51.978;6.296;2022-11-12T01:29:11;5.20;99.90
49441;DHT22;35317;51.978;6.296;2022-11-12T01:34:12;5.20;99.90
49441;DHT22;35317;51.978;6.296;2022-11-12T01:39:13;5.10;99.90
49441;DHT22;35317;51.978;6.296;2022-11-12T01:44:15;5.10;99.90
49441;DHT22;35317;51.978;6.296;2022-11-12T01:49:31;5.10;99.90
49441;DHT22;35317;51.978;6.296;2022-11-12T01:54:35;5.00;99.90
49441;DHT22;35317;51.978;6.296;2022-11-12T01:59:40;5.00;99.90
49441;DHT22;35317;51.978;6.296;2022-11-12T02:04:44;5.00;99.90
49441;DHT22;35317;51.978;6.296;2022-11-12T02:09:46;4.90;99.90
49441;DHT22;35317;51.978;6.296;2022-11-12T02:14:46;4.90;99.90
49441;DHT22;35317;51.978;6.296;2022-11-12T02:19:47;4.80;99.90
49441;DHT22;35317;51.978;6.296;2022-11-12T02:24:48;4.80;99.90
49441;DHT22;35317;51.978;6.296;2022-11-12T02:29:49;4.80;99.90
49441;DHT22;35317;51.978;6.296;2022-11-12T02:34:49;4.70;99.90
49441;DHT22;35317;51.978;6.296;2022-11-12T02:39:50;4.70;99.90
49441;DHT22;35317;51.978;6.296;2022-11-12T02:44:51;4.70;99.90
49441;DHT22;35317;51.978;6.296;2022-11-12T02:49:52;4.60;99.90
49441;DHT22;35317;51.978;6.296;2022-11-12T02:54:52;4.60;99.90
49441;DHT22;35317;51.978;6.296;2022-11-12T02:59:53;4.60;99.90
49441;DHT22;35317;51.978;6.296;2022-11-12T03:04:54;4.60;99.90
49441;DHT22;35317;51.978;6.296;2022-11-12T03:09:54;4.50;99.90
49441;DHT22;35317;51.978;6.296;2022-11-12T03:14:55;4.50;99.90
49441;DHT22;35317;51.978;6.296;2022-11-12T03:19:56;4.50;99.90
49441;DHT22;35317;51.978;6.296;2022-11-12T03:24:56;4.50;99.90
49441;DHT22;35317;51.978;6.296;2022-11-12T03:29:57;4.50;99.90
49441;DHT22;35317;51.978;6.296;2022-11-12T03:34:58;4.40;99.90
49441;DHT22;35317;51.978;6.296;2022-11-12T03:39:59;4.40;99.90
49441;DHT22;35317;51.978;6.296;2022-11-12T03:44:59;4.40;99.90
49441;DHT22;35317;51.978;6.296;2022-11-12T03:50:00;4.40;99.90
49441;DHT22;35317;51.978;6.296;2022-11-12T03:55:01;4.40;99.90
49441;DHT22;35317;51.978;6.296;2022-11-12T04:00:03;4.30;99.90
49441;DHT22;35317;51.978;6.296;2022-11-12T04:05:06;4.30;99.90
49441;DHT22;35317;51.978;6.296;2022-11-12T04:10:26;4.30;99.90
49441;DHT22;35317;51.978;6.296;2022-11-12T04:15:28;4.30;99.90
49441;DHT22;35317;51.978;6.296;2022-11-12T04:20:29;4.30;99.90
49441;DHT22;35317;51.978;6.296;2022-11-12T04:25:48;4.30;99.90
49441;DHT22;35317;51.978;6.296;2022-11-12T04:31:08;4.30;99.90
49441;DHT22;35317;51.978;6.296;2022-11-12T04:36:09;4.20;99.90
49441;DHT22;35317;51.978;6.296;2022-11-12T04:41:09;4.20;99.90
49441;DHT22;35317;51.978;6.296;2022-11-12T04:46:28;4.20;99.90
49441;DHT22;35317;51.978;6.296;2022-11-12T04:51:29;4.10;99.90
49441;DHT22;35317;51.978;6.296;2022-11-12T04:56:48;4.10;99.90
49441;DHT22;35317;51.978;6.296;2022-11-12T05:01:49;4.20;99.90
49441;DHT22;35317;51.978;6.296;2022-11-12T05:06:49;4.10;99.90
49441;DHT22;35317;51.978;6.296;2022-11-12T05:11:51;4.10;99.90
49441;DHT22;35317;51.978;6.296;2022-11-12T05:16:52;4.10;99.90
49441;DHT22;35317;51.978;6.296;2022-11-12T05:21:53;4.10;99.90
49441;DHT22;35317;51.978;6.296;2022-11-12T05:27:12;4.10;99.90
49441;DHT22;35317;51.978;6.296;2022-11-12T05:32:17;4.10;99.90
49441;DHT22;35317;51.978;6.296;2022-11-12T05:37:18;4.10;99.90
49441;DHT22;35317;51.978;6.296;2022-11-12T05:42:18;4.10;99.90
49441;DHT22;35317;51.978;6.296;2022-11-12T05:47:19;4.10;99.90
49441;DHT22;35317;51.978;6.296;2022-11-12T05:52:20;4.10;99.90
49441;DHT22;35317;51.978;6.296;2022-11-12T05:57:21;4.10;99.90
49441;DHT22;35317;51.978;6.296;2022-11-12T06:02:21;4.00;99.90
49441;DHT22;35317;51.978;6.296;2022-11-12T06:07:22;4.10;99.90
49441;DHT22;35317;51.978;6.296;2022-11-12T06:12:23;4.00;99.90
49441;DHT22;35317;51.978;6.296;2022-11-12T06:17:24;3.90;99.90
49441;DHT22;35317;51.978;6.296;2022-11-12T06:22:24;3.90;99.90
49441;DHT22;35317;51.978;6.296;2022-11-12T06:27:25;3.90;99.90
49441;DHT22;35317;51.978;6.296;2022-11-12T06:32:26;3.80;99.90
49441;DHT22;35317;51.978;6.296;2022-11-12T06:37:27;3.80;99.90
49441;DHT22;35317;51.978;6.296;2022-11-12T06:42:27;3.80;99.90
49441;DHT22;35317;51.978;6.296;2022-11-12T06:47:28;3.80;99.90
49441;DHT22;35317;51.978;6.296;2022-11-12T06:52:29;3.80;99.90
49441;DHT22;35317;51.978;6.296;2022-11-12T06:57:29;3.80;99.90
49441;DHT22;35317;51.978;6.296;2022-11-12T07:02:30;3.80;99.90
49441;DHT22;35317;51.978;6.296;2022-11-12T07:07:31;3.80;99.90
49441;DHT22;35317;51.978;6.296;2022-11-12T07:12:32;3.80;99.90
49441;DHT22;35317;51.978;6.296;2022-11-12T07:17:32;3.80;99.90
49441;DHT22;35317;51.978;6.296;2022-11-12T07:22:33;3.90;99.90
49441;DHT22;35317;51.978;6.296;2022-11-12T07:27:34;3.90;99.90
49441;DHT22;35317;51.978;6.296;2022-11-12T07:32:35;4.00;99.90
49441;DHT22;35317;51.978;6.296;2022-11-12T07:37:35;4.00;99.90
49441;DHT22;35317;51.978;6.296;2022-11-12T07:42:36;4.10;99.90
49441;DHT22;35317;51.978;6.296;2022-11-12T07:47:37;4.20;99.90
49441;DHT22;35317;51.978;6.296;2022-11-12T07:52:38;4.30;99.90
49441;DHT22;35317;51.978;6.296;2022-11-12T07:57:38;4.30;99.90
49441;DHT22;35317;51.978;6.296;2022-11-12T08:02:39;4.40;99.90
49441;DHT22;35317;51.978;6.296;2022-11-12T08:07:40;4.50;99.90
49441;DHT22;35317;51.978;6.296;2022-11-12T08:12:40;4.60;99.90
49441;DHT22;35317;51.978;6.296;2022-11-12T08:17:41;4.70;99.90
49441;DHT22;35317;51.978;6.296;2022-11-12T08:22:42;4.80;99.90
49441;DHT22;35317;51.978;6.296;2022-11-12T08:27:43;4.90;99.90
49441;DHT22;35317;51.978;6.296;2022-11-12T08:32:43;5.10;99.90
49441;DHT22;35317;51.978;6.296;2022-11-12T08:37:44;5.30;99.90
49441;DHT22;35317;51.978;6.296;2022-11-12T08:42:45;5.50;99.90
49441;DHT22;35317;51.978;6.296;2022-11-12T08:47:45;5.60;99.90
49441;DHT22;35317;51.978;6.296;2022-11-12T08:52:46;5.80;99.90
49441;DHT22;35317;51.978;6.296;2022-11-12T08:57:47;6.00;99.90
49441;DHT22;35317;51.978;6.296;2022-11-12T09:02:47;6.20;99.90
49441;DHT22;35317;51.978;6.296;2022-11-12T09:07:58;6.40;99.90
49441;DHT22;35317;51.978;6.296;2022-11-12T09:13:00;6.50;99.90
49441;DHT22;35317;51.978;6.296;2022-11-12T09:18:03;6.70;99.90
49441;DHT22;35317;51.978;6.296;2022-11-12T09:23:11;6.80;99.90
49441;DHT22;35317;51.978;6.296;2022-11-12T09:28:16;7.00;99.90
49441;DHT22;35317;51.978;6.296;2022-11-12T09:33:23;7.20;99.90
49441;DHT22;35317;51.978;6.296;2022-11-12T09:38:29;7.40;99.90
49441;DHT22;35317;51.978;6.296;2022-11-12T09:43:42;7.50;99.90
49441;DHT22;35317;51.978;6.296;2022-11-12T09:48:52;7.70;99.90
49441;DHT22;35317;51.978;6.296;2022-11-12T09:54:25;7.90;99.90
49441;DHT22;35317;51.978;6.296;2022-11-12T09:59:31;8.10;99.90
49441;DHT22;35317;51.978;6.296;2022-11-12T10:15:30;8.60;99.90
49441;DHT22;35317;51.978;6.296;2022-11-12T10:20:59;8.80;99.90
49441;DHT22;35317;51.978;6.296;2022-11-12T10:26:14;9.00;99.90
49441;DHT22;35317;51.978;6.296;2022-11-12T10:31:18;9.20;99.90
49441;DHT22;35317;51.978;6.296;2022-11-12T10:36:30;9.30;99.90
49441;DHT22;35317;51.978;6.296;2022-11-12T10:41:34;9.50;99.90
49441;DHT22;35317;51.978;6.296;2022-11-12T10:46:36;9.70;99.90
49441;DHT22;35317;51.978;6.296;2022-11-12T10:51:37;9.80;99.90
49441;DHT22;35317;51.978;6.296;2022-11-12T10:56:38;10.10;99.90
49441;DHT22;35317;51.978;6.296;2022-11-12T11:01:39;10.30;99.90
49441;DHT22;35317;51.978;6.296;2022-11-12T11:06:40;10.50;99.90
49441;DHT22;35317;51.978;6.296;2022-11-12T11:11:51;10.70;99.90
49441;DHT22;35317;51.978;6.296;2022-11-12T11:17:02;10.90;99.90
49441;DHT22;35317;51.978;6.296;2022-11-12T11:22:27;11.00;99.90
49441;DHT22;35317;51.978;6.296;2022-11-12T11:27:58;11.20;99.90
49441;DHT22;35317;51.978;6.296;2022-11-12T11:49:34;12.00;99.20
49441;DHT22;35317;51.978;6.296;2022-11-12T11:55:07;12.30;99.00
49441;DHT22;35317;51.978;6.296;2022-11-12T12:00:24;12.50;98.20
49441;DHT22;35317;51.978;6.296;2022-11-12T12:05:52;12.70;97.50
49441;DHT22;35317;51.978;6.296;2022-11-12T12:11:29;13.00;97.10
49441;DHT22;35317;51.978;6.296;2022-11-12T12:22:20;13.30;95.70
49441;DHT22;35317;51.978;6.296;2022-11-12T12:27:34;13.50;95.00
49441;DHT22;35317;51.978;6.296;2022-11-12T12:32:42;13.70;94.60
49441;DHT22;35317;51.978;6.296;2022-11-12T12:43:35;14.30;93.50
49441;DHT22;35317;51.978;6.296;2022-11-12T12:48:41;14.70;93.10
49441;DHT22;35317;51.978;6.296;2022-11-12T12:53:43;15.10;92.40
49441;DHT22;35317;51.978;6.296;2022-11-12T12:58:56;15.60;91.50
49441;DHT22;35317;51.978;6.296;2022-11-12T13:04:08;16.00;90.40
49441;DHT22;35317;51.978;6.296;2022-11-12T13:40:32;15.90;85.30
49441;DHT22;35317;51.978;6.296;2022-11-12T13:45:42;15.70;85.10
49441;DHT22;35317;51.978;6.296;2022-11-12T13:50:56;15.60;85.00
49441;DHT22;35317;51.978;6.296;2022-11-12T13:55:58;15.40;85.30
49441;DHT22;35317;51.978;6.296;2022-11-12T14:01:01;15.40;85.60
49441;DHT22;35317;51.978;6.296;2022-11-12T14:06:14;15.30;85.40
49441;DHT22;35317;51.978;6.296;2022-11-12T14:22:27;15.30;85.80
49441;DHT22;35317;51.978;6.296;2022-11-12T14:27:36;15.40;85.00
49441;DHT22;35317;51.978;6.296;2022-11-12T14:32:38;15.40;85.20
49441;DHT22;35317;51.978;6.296;2022-11-12T14:37:47;15.40;85.10
49441;DHT22;35317;51.978;6.296;2022-11-12T14:43:01;15.30;85.30
49441;DHT22;35317;51.978;6.296;2022-11-12T14:48:08;15.10;85.60
49441;DHT22;35317;51.978;6.296;2022-11-12T14:53:24;14.90;85.70
49441;DHT22;35317;51.978;6.296;2022-11-12T14:58:27;14.70;85.90
49441;DHT22;35317;51.978;6.296;2022-11-12T15:03:31;14.50;86.20
49441;DHT22;35317;51.978;6.296;2022-11-12T15:08:34;14.30;86.70
49441;DHT22;35317;51.978;6.296;2022-11-12T15:13:36;14.10;87.00
49441;DHT22;35317;51.978;6.296;2022-11-12T15:18:38;13.90;87.50
49441;DHT22;35317;51.978;6.296;2022-11-12T15:29:31;13.40;88.70
49441;DHT22;35317;51.978;6.296;2022-11-12T15:40:09;12.80;90.00
49441;DHT22;35317;51.978;6.296;2022-11-12T15:45:36;12.50;90.20
49441;DHT22;35317;51.978;6.296;2022-11-12T15:50:37;12.20;90.60
49441;DHT22;35317;51.978;6.296;2022-11-12T15:55:39;12.00;90.80
49441;DHT22;35317;51.978;6.296;2022-11-12T16:00:40;11.70;91.10
49441;DHT22;35317;51.978;6.296;2022-11-12T16:05:42;11.50;91.30
49441;DHT22;35317;51.978;6.296;2022-11-12T16:10:44;11.20;91.60
49441;DHT22;35317;51.978;6.296;2022-11-12T16:15:49;11.00;91.80
49441;DHT22;35317;51.978;6.296;2022-11-12T16:20:50;10.80;92.00
49441;DHT22;35317;51.978;6.296;2022-11-12T16:25:50;10.60;92.00
49441;DHT22;35317;51.978;6.296;2022-11-12T16:30:51;10.30;92.50
49441;DHT22;35317;51.978;6.296;2022-11-12T16:35:52;10.20;92.60
49441;DHT22;35317;51.978;6.296;2022-11-12T16:40:52;10.00;92.80
49441;DHT22;35317;51.978;6.296;2022-11-12T16:45:53;9.90;93.10
49441;DHT22;35317;51.978;6.296;2022-11-12T16:50:58;9.70;93.20
49441;DHT22;35317;51.978;6.296;2022-11-12T16:55:59;9.60;93.40
49441;DHT22;35317;51.978;6.296;2022-11-12T17:01:00;9.50;93.60
49441;DHT22;35317;51.978;6.296;2022-11-12T17:06:00;9.40;93.90
49441;DHT22;35317;51.978;6.296;2022-11-12T17:11:07;9.20;94.20
49441;DHT22;35317;51.978;6.296;2022-11-12T17:16:09;9.20;94.40
49441;DHT22;35317;51.978;6.296;2022-11-12T17:21:13;9.00;94.60
49441;DHT22;35317;51.978;6.296;2022-11-12T17:26:18;8.90;94.80
49441;DHT22;35317;51.978;6.296;2022-11-12T17:31:22;8.80;94.90
49441;DHT22;35317;51.978;6.296;2022-11-12T17:36:25;8.70;95.10
49441;DHT22;35317;51.978;6.296;2022-11-12T17:41:27;8.60;95.30
49441;DHT22;35317;51.978;6.296;2022-11-12T17:46:28;8.50;95.50
49441;DHT22;35317;51.978;6.296;2022-11-12T17:51:29;8.40;95.70
49441;DHT22;35317;51.978;6.296;2022-11-12T17:56:30;8.40;95.90
49441;DHT22;35317;51.978;6.296;2022-11-12T18:07:26;8.20;96.10
49441;DHT22;35317;51.978;6.296;2022-11-12T18:12:27;8.10;96.10
49441;DHT22;35317;51.978;6.296;2022-11-12T18:17:28;8.10;96.30
49441;DHT22;35317;51.978;6.296;2022-11-12T18:22:35;8.00;96.70
49441;DHT22;35317;51.978;6.296;2022-11-12T18:27:37;8.00;97.20
49441;DHT22;35317;51.978;6.296;2022-11-12T18:32:38;8.10;97.50
49441;DHT22;35317;51.978;6.296;2022-11-12T18:37:42;8.10;97.60
49441;DHT22;35317;51.978;6.296;2022-11-12T18:42:46;8.10;97.80
49441;DHT22;35317;51.978;6.296;2022-11-12T18:47:52;8.10;98.00
49441;DHT22;35317;51.978;6.296;2022-11-12T18:52:53;8.10;98.20
49441;DHT22;35317;51.978;6.296;2022-11-12T18:57:57;8.00;98.30
49441;DHT22;35317;51.978;6.296;2022-11-12T19:02:58;8.00;98.50
49441;DHT22;35317;51.978;6.296;2022-11-12T19:08:07;8.10;98.70
49441;DHT22;35317;51.978;6.296;2022-11-12T19:13:08;8.10;98.80
49441;DHT22;35317;51.978;6.296;2022-11-12T19:18:34;8.10;98.90
49441;DHT22;35317;51.978;6.296;2022-11-12T19:23:52;8.10;99.00
49441;DHT22;35317;51.978;6.296;2022-11-12T19:29:00;8.10;99.00
49441;DHT22;35317;51.978;6.296;2022-11-12T19:34:01;8.10;99.10
49441;DHT22;35317;51.978;6.296;2022-11-12T19:39:04;8.10;99.10
49441;DHT22;35317;51.978;6.296;2022-11-12T19:44:05;8.00;99.10
49441;DHT22;35317;51.978;6.296;2022-11-12T19:49:05;8.00;99.10
49441;DHT22;35317;51.978;6.296;2022-11-12T19:54:06;7.90;99.10
49441;DHT22;35317;51.978;6.296;2022-11-12T19:59:08;7.80;99.20
49441;DHT22;35317;51.978;6.296;2022-11-12T20:04:08;7.80;99.30
49441;DHT22;35317;51.978;6.296;2022-11-12T20:09:11;7.70;99.30
49441;DHT22;35317;51.978;6.296;2022-11-12T20:14:11;7.70;99.40
49441;DHT22;35317;51.978;6.296;2022-11-12T20:19:12;7.70;99.60
49441;DHT22;35317;51.978;6.296;2022-11-12T20:24:13;7.70;99.70
49441;DHT22;35317;51.978;6.296;2022-11-12T20:29:14;7.80;99.80
49441;DHT22;35317;51.978;6.296;2022-11-12T20:34:15;7.80;99.80
49441;DHT22;35317;51.978;6.296;2022-11-12T20:39:16;7.70;99.80
49441;DHT22;35317;51.978;6.296;2022-11-12T20:44:16;7.70;99.80
49441;DHT22;35317;51.978;6.296;2022-11-12T20:49:17;7.70;99.80
49441;DHT22;35317;51.978;6.296;2022-11-12T20:54:18;7.70;99.80
49441;DHT22;35317;51.978;6.296;2022-11-12T20:59:20;7.60;99.80
49441;DHT22;35317;51.978;6.296;2022-11-12T21:04:21;7.60;99.90
49441;DHT22;35317;51.978;6.296;2022-11-12T21:09:22;7.70;99.90
49441;DHT22;35317;51.978;6.296;2022-11-12T21:14:22;7.60;99.90
49441;DHT22;35317;51.978;6.296;2022-11-12T21:19:23;7.60;99.90
49441;DHT22;35317;51.978;6.296;2022-11-12T21:24:50;7.60;99.90
49441;DHT22;35317;51.978;6.296;2022-11-12T21:29:51;7.50;99.90
49441;DHT22;35317;51.978;6.296;2022-11-12T21:34:51;7.50;99.90
49441;DHT22;35317;51.978;6.296;2022-11-12T21:39:54;7.50;99.90
49441;DHT22;35317;51.978;6.296;2022-11-12T21:44:55;7.40;99.90
49441;DHT22;35317;51.978;6.296;2022-11-12T21:49:56;7.40;99.90
49441;DHT22;35317;51.978;6.296;2022-11-12T21:54:57;7.30;99.90
49441;DHT22;35317;51.978;6.296;2022-11-12T21:59:58;7.30;99.90
49441;DHT22;35317;51.978;6.296;2022-11-12T22:05:00;7.20;99.90
49441;DHT22;35317;51.978;6.296;2022-11-12T22:10:01;7.20;99.90
49441;DHT22;35317;51.978;6.296;2022-11-12T22:15:02;7.20;99.90
49441;DHT22;35317;51.978;6.296;2022-11-12T22:20:03;7.20;99.90
49441;DHT22;35317;51.978;6.296;2022-11-12T22:25:04;7.10;99.90
49441;DHT22;35317;51.978;6.296;2022-11-12T22:30:06;7.20;99.90
49441;DHT22;35317;51.978;6.296;2022-11-12T22:35:07;7.10;99.90
49441;DHT22;35317;51.978;6.296;2022-11-12T22:40:08;7.20;99.90
49441;DHT22;35317;51.978;6.296;2022-11-12T22:45:10;7.20;99.90
49441;DHT22;35317;51.978;6.296;2022-11-12T22:50:11;7.30;99.90
49441;DHT22;35317;51.978;6.296;2022-11-12T22:55:12;7.30;99.90
49441;DHT22;35317;51.978;6.296;2022-11-12T23:00:13;7.30;99.90
49441;DHT22;35317;51.978;6.296;2022-11-12T23:05:14;7.30;99.90
49441;DHT22;35317;51.978;6.296;2022-11-12T23:10:15;7.30;99.90
49441;DHT22;35317;51.978;6.296;2022-11-12T23:15:15;7.30;99.90
49441;DHT22;35317;51.978;6.296;2022-11-12T23:20:16;7.30;99.90
49441;DHT22;35317;51.978;6.296;2022-11-12T23:25:17;7.20;99.90
49441;DHT22;35317;51.978;6.296;2022-11-12T23:30:17;7.20;99.90
49441;DHT22;35317;51.978;6.296;2022-11-12T23:35:18;7.10;99.90
49441;DHT22;35317;51.978;6.296;2022-11-12T23:40:19;7.10;99.90
49441;DHT22;35317;51.978;6.296;2022-11-12T23:45:20;7.10;99.90
49441;DHT22;35317;51.978;6.296;2022-11-12T23:50:21;7.00;99.90
49441;DHT22;35317;51.978;6.296;2022-11-12T23:55:21;7.00;99.90
